Kezdőlap
METAR-TAF:

METAR-TAF

Repülőterek :

Platteville, Wisconsin, Amerikai Egyesült Államok

földrajzi szélesség: 42-41-22N, földrajzi hosszúság: 090-26-40W, magasság: 312 m

Jelenlegi meteorológiai megfigyelések

A jelentés 29 perccel ezelõtt készült, 16:15 UTC
Északi szél 12 kt széllökések: 16 kt
Hőmérséklet 11°C
Páratartalom 40%
Légköri nyomás 1029 hPa
Látótávolság: 16.1 km
Derült ég

METAR: KPVB 111615Z AUTO 01012G16KT 10SM CLR 11/M02 A3039 RMK AO1 T01091018

Idő: 11:44 (16:44 UTC)


TAF: hiányzik

Meteorológiai megfigyelések és előrejelzések több, mint 4000 repülőtéren (METAR és TAF jelentéseket).

A térképen piros és sárga pontok jelzik az elérhető meteorológiai állomásokat.

Mozgassa az egeret a pont fölött, hogy megjelenjen az állomás neve.

Azután kattintson az időjárási megfigyelések és előrejelzések megtekintéséhez.

A térkép megváltoztatása: kattintson a fekete keresztel jelölt zöld gombra ráközelítéshez, a vonallal jelölt zöld gombra távolításhoz, vagy a zöld nyilakra a szomszédos térképek eléréséhez.


METAR-TAF: